Archival Weather

Abadan

Abadan, Iran (OIAA)

Report from: Thursday, September 21, 2023 12:00 AM UTC
Current time: Sunday, February 25, 2024 10:17 PM UTC

Current weather – Weather history – Daily summaries
Weather forecast

Temperature23.0°C (73.4°F)
Dew point7.0°C (44.6°F)
Winds Calm
Clouds Sky clear
Altimeter29.68 in.Hg (1005 mB)
Relative humidity36 %
Density altitude1,355 ft. (413 m)
Remarks Ceiling and visibility OK
Flight conditions Visual Meteorological Conditions
Raw dataOIAA 210000Z 00000KT CAVOK 23/07 Q1005
An error has occurred. This application may no longer respond until reloaded. Reload 🗙